Cerlak, Russia
Current Conditions -  °F | °C
As of 8:30 PM on Tuesday 27 Jan 2015 (Local Time) from UNOO Reporting Station
Clear Clear  
Wind Chill: -15°   Ceiling: Unl
Heat Index: -2°   Visibility: 6mi
Dew Point: -9°   Wind: 7mph
Humidity: 71%   Direction: 240°WSW
Pressure: 30.39"   Gusts: NA
Location:  54.17°N, 74.8°E
Report Text: UNOO 271430Z 24003MPS CAVOK M19/M23 Q1029 25820545 NOSIG RMKQFE764
Loading
Personal Weather Stations






























Interactive Weather Map New forecast layout! Learn more

10-Day Weather Forecast

Advertisements
Track Severe Weather on mobile